createdAt,value
2018-03-15T00:02:00.920Z,7.23
2018-03-15T00:04:37.820Z,6.67
2018-03-15T00:07:06.318Z,7.67
2018-03-15T00:09:34.770Z,7.93
2018-03-15T00:12:03.262Z,8.40
2018-03-15T00:14:31.758Z,7.90
2018-03-15T00:17:00.207Z,7.77
2018-03-15T00:19:28.695Z,7.70
2018-03-15T00:21:57.182Z,7.87
2018-03-15T00:24:25.634Z,6.80
2018-03-15T00:26:54.122Z,6.87
2018-03-15T00:29:22.588Z,6.27
2018-03-15T00:31:51.078Z,5.80
2018-03-15T00:34:19.526Z,5.93
2018-03-15T00:36:48.018Z,6.00
2018-03-15T00:39:16.502Z,5.87
2018-03-15T00:41:45.020Z,5.80
2018-03-15T00:44:13.475Z,6.63
2018-03-15T00:46:42.766Z,6.50
2018-03-15T00:49:11.280Z,6.70
2018-03-15T00:51:39.750Z,6.90
2018-03-15T00:54:08.244Z,7.00
2018-03-15T00:56:36.694Z,7.30
2018-03-15T00:59:05.138Z,6.43
2018-03-15T01:01:33.640Z,6.37
2018-03-15T01:04:02.102Z,6.13
2018-03-15T01:06:30.638Z,6.23
2018-03-15T01:08:59.097Z,5.33
2018-03-15T01:11:27.609Z,4.90
2018-03-15T01:13:56.067Z,5.30
2018-03-15T01:16:24.546Z,4.93
2018-03-15T01:18:53.042Z,6.87
2018-03-15T01:21:21.530Z,4.43
2018-03-15T01:23:50.027Z,4.50
2018-03-15T01:26:18.478Z,5.03
2018-03-15T01:28:46.974Z,4.50
2018-03-15T01:31:15.422Z,3.67
2018-03-15T01:33:43.918Z,4.93
2018-03-15T01:36:12.442Z,3.33
2018-03-15T01:38:40.858Z,4.23
2018-03-15T01:41:10.112Z,4.40
2018-03-15T01:43:38.602Z,5.77
2018-03-15T01:46:07.110Z,4.63
2018-03-15T01:48:35.619Z,4.00
2018-03-15T01:51:04.117Z,4.17
2018-03-15T01:53:32.574Z,3.57
2018-03-15T01:56:01.094Z,4.20
2018-03-15T01:58:29.590Z,4.57
2018-03-15T02:00:58.102Z,4.37
2018-03-15T02:03:26.594Z,3.60
2018-03-15T02:05:55.120Z,4.47
2018-03-15T02:08:23.601Z,4.30
2018-03-15T02:10:52.141Z,6.13
2018-03-15T02:13:20.638Z,4.13
2018-03-15T02:15:49.130Z,4.50
2018-03-15T02:18:17.614Z,4.17
2018-03-15T02:20:46.070Z,4.67
2018-03-15T02:23:14.553Z,4.37
2018-03-15T02:25:43.016Z,4.20
2018-03-15T02:28:11.539Z,4.20
2018-03-15T02:30:39.998Z,4.43
2018-03-15T02:33:08.507Z,4.43
2018-03-15T02:35:36.969Z,5.00
2018-03-15T02:38:05.462Z,4.33
2018-03-15T02:40:33.931Z,4.40
2018-03-15T02:43:02.430Z,4.70
2018-03-15T02:45:30.896Z,4.10
2018-03-15T02:47:59.394Z,5.43
2018-03-15T02:50:27.846Z,4.37
2018-03-15T02:52:56.362Z,4.40
2018-03-15T02:55:24.865Z,4.63
2018-03-15T02:57:53.361Z,4.40
2018-03-15T03:00:21.858Z,4.63
2018-03-15T03:02:50.347Z,5.10
2018-03-15T03:05:18.806Z,5.80
2018-03-15T03:07:47.296Z,5.10
2018-03-15T03:10:15.754Z,5.73
2018-03-15T03:12:44.294Z,6.33
2018-03-15T03:15:12.798Z,5.97
2018-03-15T03:17:41.310Z,5.67
2018-03-15T03:20:09.774Z,5.90
2018-03-15T03:22:38.259Z,5.17
2018-03-15T03:25:06.715Z,4.50
2018-03-15T03:27:35.216Z,5.00
2018-03-15T03:30:03.729Z,4.73
2018-03-15T03:32:32.238Z,4.77
2018-03-15T03:35:00.721Z,4.83
2018-03-15T03:37:29.174Z,4.33
2018-03-15T03:39:57.702Z,6.37
2018-03-15T03:42:26.194Z,5.07
2018-03-15T03:44:54.650Z,5.00
2018-03-15T03:47:23.097Z,5.23
2018-03-15T03:49:51.589Z,4.40
2018-03-15T03:52:20.045Z,5.37
2018-03-15T03:54:48.529Z,6.00
2018-03-15T03:57:16.980Z,4.47
2018-03-15T03:59:45.486Z,5.07
2018-03-15T04:02:13.943Z,4.73
2018-03-15T04:04:42.419Z,5.37
2018-03-15T04:07:10.906Z,8.00
2018-03-15T04:09:39.369Z,5.00
2018-03-15T04:12:07.830Z,5.00
2018-03-15T04:14:36.306Z,4.67
2018-03-15T04:17:04.776Z,5.03
2018-03-15T04:19:33.269Z,5.87
2018-03-15T04:22:01.780Z,4.67
2018-03-15T04:24:30.235Z,4.67
2018-03-15T04:26:58.762Z,4.93
2018-03-15T04:29:27.238Z,4.70
2018-03-15T04:31:55.787Z,4.80
2018-03-15T04:34:24.265Z,5.53
2018-03-15T04:36:52.741Z,9.70
2018-03-15T04:39:21.234Z,5.03
2018-03-15T04:41:49.697Z,4.80
2018-03-15T04:44:18.186Z,5.53
2018-03-15T04:46:46.678Z,7.17
2018-03-15T04:49:15.162Z,5.13
2018-03-15T04:51:43.619Z,8.97
2018-03-15T04:54:12.105Z,13.53
2018-03-15T04:56:40.597Z,9.03
2018-03-15T04:59:09.081Z,5.77
2018-03-15T05:01:37.573Z,8.63
2018-03-15T05:04:06.120Z,8.30
2018-03-15T05:06:34.610Z,8.07
2018-03-15T05:09:03.130Z,7.10
2018-03-15T05:11:31.626Z,8.00
2018-03-15T05:14:00.082Z,6.47
2018-03-15T05:16:28.578Z,6.43
2018-03-15T05:18:57.035Z,5.90
2018-03-15T05:21:25.529Z,10.40
2018-03-15T05:23:54.022Z,13.83
2018-03-15T05:26:22.529Z,15.60
2018-03-15T05:28:51.033Z,12.60
2018-03-15T05:31:19.526Z,19.97
2018-03-15T05:33:47.985Z,12.50
2018-03-15T05:36:16.484Z,15.63
2018-03-15T05:38:44.961Z,10.73
2018-03-15T05:41:13.451Z,12.43
2018-03-15T05:43:41.910Z,16.40
2018-03-15T05:46:10.477Z,10.20
2018-03-15T05:48:38.934Z,20.37
2018-03-15T05:51:07.434Z,14.43
2018-03-15T05:53:35.947Z,13.50
2018-03-15T05:56:04.398Z,16.77
2018-03-15T05:58:32.907Z,8.90
2018-03-15T06:01:01.438Z,20.70
2018-03-15T06:03:29.891Z,8.97
2018-03-15T06:05:58.396Z,13.93
2018-03-15T06:08:26.898Z,10.93
2018-03-15T06:10:55.358Z,9.83
2018-03-15T06:13:23.822Z,14.20
2018-03-15T06:15:52.318Z,24.57
2018-03-15T06:18:20.774Z,11.13
2018-03-15T06:20:49.276Z,12.13
2018-03-15T06:23:17.762Z,24.33
2018-03-15T06:25:46.274Z,9.80
2018-03-15T06:28:15.359Z,15.33
2018-03-15T06:30:43.864Z,13.67
2018-03-15T06:33:12.368Z,14.07
2018-03-15T06:35:40.894Z,13.83
2018-03-15T06:38:09.422Z,21.53
2018-03-15T06:40:37.879Z,13.90
2018-03-15T06:43:06.358Z,16.60
2018-03-15T06:45:34.865Z,19.67
2018-03-15T06:48:03.355Z,15.23
2018-03-15T06:50:31.906Z,9.37
2018-03-15T06:53:00.375Z,11.73
2018-03-15T06:55:28.952Z,21.67
2018-03-15T06:57:57.454Z,9.57
2018-03-15T07:00:25.916Z,10.93
2018-03-15T07:02:54.470Z,7.67
2018-03-15T07:05:22.974Z,14.37
2018-03-15T07:07:51.537Z,15.10
2018-03-15T07:10:20.097Z,10.13
2018-03-15T07:12:48.578Z,13.33
2018-03-15T07:15:17.154Z,13.70
2018-03-15T07:17:45.613Z,11.67
2018-03-15T07:20:14.168Z,20.20
2018-03-15T07:22:42.667Z,21.00
2018-03-15T07:25:11.210Z,31.53
2018-03-15T07:27:39.721Z,10.27
2018-03-15T07:30:08.234Z,10.10
2018-03-15T07:32:36.717Z,9.67
2018-03-15T07:35:05.244Z,19.97
2018-03-15T07:37:33.720Z,13.73
2018-03-15T07:40:02.440Z,20.37
2018-03-15T07:42:30.947Z,21.57
2018-03-15T07:44:59.417Z,11.13
2018-03-15T07:47:27.921Z,10.63
2018-03-15T07:49:56.400Z,17.53
2018-03-15T07:52:24.893Z,14.87
2018-03-15T07:54:53.361Z,8.47
2018-03-15T07:57:21.858Z,12.97
2018-03-15T07:59:50.337Z,7.60
2018-03-15T08:02:18.846Z,8.07
2018-03-15T08:04:48.301Z,14.60
2018-03-15T08:07:16.972Z,7.53
2018-03-15T08:09:45.430Z,9.00
2018-03-15T08:12:14.072Z,13.50
2018-03-15T08:14:42.934Z,7.93
2018-03-15T08:17:11.420Z,8.33
2018-03-15T08:19:39.944Z,22.53
2018-03-15T08:22:08.410Z,13.63
2018-03-15T08:24:36.906Z,18.33
2018-03-15T08:27:05.404Z,8.03
2018-03-15T08:29:33.898Z,8.60
2018-03-15T08:32:02.390Z,13.13
2018-03-15T08:34:30.887Z,7.83
2018-03-15T08:36:59.330Z,8.63
2018-03-15T08:39:27.867Z,12.17
2018-03-15T08:41:56.314Z,5.17
2018-03-15T08:44:24.818Z,49.33
2018-03-15T08:46:53.297Z,15.60
2018-03-15T08:49:21.818Z,10.57
2018-03-15T08:51:50.286Z,14.20
2018-03-15T08:54:18.840Z,12.00
2018-03-15T08:56:47.345Z,15.60
2018-03-15T08:59:15.874Z,16.13
2018-03-15T09:01:44.378Z,14.93
2018-03-15T09:04:12.853Z,19.23
2018-03-15T09:06:41.422Z,14.27
2018-03-15T09:09:09.905Z,8.63
2018-03-15T09:11:38.410Z,16.43
2018-03-15T09:14:06.886Z,5.27
2018-03-15T09:16:35.438Z,25.33
2018-03-15T09:19:03.980Z,21.80
2018-03-15T09:21:32.515Z,4.47
2018-03-15T09:24:00.967Z,9.10
2018-03-15T09:26:29.446Z,8.53
2018-03-15T09:28:57.947Z,10.90
2018-03-15T09:31:26.422Z,5.23
2018-03-15T09:33:54.966Z,6.10
2018-03-15T09:36:23.505Z,6.83
2018-03-15T09:38:51.980Z,6.67
2018-03-15T09:41:20.490Z,10.67
2018-03-15T09:43:49.022Z,11.90
2018-03-15T09:46:17.587Z,4.33
2018-03-15T09:48:46.074Z,10.53
2018-03-15T09:51:14.577Z,20.23
2018-03-15T09:53:43.062Z,10.23
2018-03-15T09:56:11.607Z,10.90
2018-03-15T09:58:40.106Z,5.47
2018-03-15T10:01:08.642Z,2.93
2018-03-15T10:03:37.120Z,7.50
2018-03-15T10:06:05.664Z,8.97
2018-03-15T10:08:34.218Z,13.73
2018-03-15T10:11:02.798Z,5.20
2018-03-15T10:13:31.339Z,3.30
2018-03-15T10:15:59.953Z,13.57
2018-03-15T10:18:28.594Z,20.47
2018-03-15T10:20:57.271Z,12.93
2018-03-15T10:23:25.776Z,7.50
2018-03-15T10:25:54.350Z,20.17
2018-03-15T10:28:22.857Z,3.57
2018-03-15T10:30:51.361Z,15.37
2018-03-15T10:33:25.406Z,22.13
2018-03-15T10:35:53.943Z,9.80
2018-03-15T10:38:22.466Z,10.37
2018-03-15T10:40:51.036Z,6.67
2018-03-15T10:43:19.567Z,16.87
2018-03-15T10:45:48.124Z,13.77
2018-03-15T10:48:16.882Z,7.77
2018-03-15T10:50:45.374Z,9.97
2018-03-15T10:53:13.933Z,3.83
2018-03-15T10:55:42.433Z,10.60
2018-03-15T10:58:10.966Z,3.40
2018-03-15T11:00:45.080Z,4.60
2018-03-15T11:03:17.405Z,18.50
2018-03-15T11:05:48.370Z,2.93
2018-03-15T11:08:22.544Z,3.60
2018-03-15T11:10:51.048Z,3.17
2018-03-15T11:13:19.587Z,3.27
2018-03-15T11:15:48.097Z,2.70
2018-03-15T11:18:16.620Z,5.50
2018-03-15T11:20:45.197Z,3.00
2018-03-15T11:23:13.682Z,3.73
2018-03-15T11:25:42.454Z,4.90
2018-03-15T11:28:10.975Z,3.00
2018-03-15T11:30:39.527Z,11.10
2018-03-15T11:33:08.014Z,6.50
2018-03-15T11:35:36.502Z,4.57
2018-03-15T11:38:05.043Z,3.57
2018-03-15T11:40:33.550Z,3.67
2018-03-15T11:43:02.204Z,6.87
2018-03-15T11:45:30.738Z,2.70
2018-03-15T11:47:59.273Z,2.77
2018-03-15T11:50:27.803Z,4.20
2018-03-15T11:52:56.318Z,3.27
2018-03-15T11:55:24.920Z,2.80
2018-03-15T11:57:53.409Z,3.20
2018-03-15T12:00:21.944Z,13.07
2018-03-15T12:02:50.414Z,4.20
2018-03-15T12:05:18.923Z,4.27
2018-03-15T12:07:47.473Z,3.90
2018-03-15T12:10:15.974Z,2.73
2018-03-15T12:12:44.474Z,9.27
2018-03-15T12:15:13.019Z,19.87
2018-03-15T12:17:41.545Z,8.87
2018-03-15T12:20:09.997Z,22.93
2018-03-15T12:22:38.522Z,6.47
2018-03-15T12:25:07.011Z,5.73
2018-03-15T12:27:35.510Z,3.43
2018-03-15T12:30:04.050Z,2.90
2018-03-15T12:32:32.510Z,2.97
2018-03-15T12:35:01.027Z,4.67
2018-03-15T12:37:29.489Z,3.57
2018-03-15T12:39:57.993Z,3.00
2018-03-15T12:42:26.446Z,3.40
2018-03-15T12:44:54.966Z,2.63
2018-03-15T12:47:23.434Z,2.70
2018-03-15T12:49:51.975Z,2.77
2018-03-15T12:52:20.435Z,2.13
2018-03-15T12:54:48.927Z,2.50
2018-03-15T12:57:17.384Z,9.70
2018-03-15T12:59:45.897Z,5.97
2018-03-15T13:02:14.354Z,4.07
2018-03-15T13:04:42.825Z,8.43
2018-03-15T13:07:11.353Z,6.90
2018-03-15T13:09:39.852Z,2.93
2018-03-15T13:12:08.339Z,2.53
2018-03-15T13:14:36.794Z,2.50
2018-03-15T13:17:05.310Z,2.50
2018-03-15T13:19:33.766Z,3.77
2018-03-15T13:22:02.309Z,3.47
2018-03-15T13:24:30.815Z,3.60
2018-03-15T13:26:59.321Z,2.70
2018-03-15T13:29:27.858Z,3.27
2018-03-15T13:31:56.389Z,2.87
2018-03-15T13:34:24.937Z,4.67
2018-03-15T13:36:53.421Z,10.03
2018-03-15T13:39:21.914Z,7.00
2018-03-15T13:41:50.413Z,5.30
2018-03-15T13:44:18.980Z,6.67
2018-03-15T13:46:47.483Z,2.93
2018-03-15T13:49:15.974Z,2.70
2018-03-15T13:51:44.494Z,2.33
2018-03-15T13:54:13.012Z,2.40
2018-03-15T13:56:41.472Z,3.03
2018-03-15T13:59:09.962Z,2.40
2018-03-15T14:01:38.454Z,8.93
2018-03-15T14:04:07.825Z,4.27
2018-03-15T14:06:36.282Z,2.93
2018-03-15T14:09:04.880Z,3.20
2018-03-15T14:11:33.391Z,2.67
2018-03-15T14:14:01.909Z,3.73
2018-03-15T14:16:30.414Z,2.70
2018-03-15T14:18:58.942Z,2.90
2018-03-15T14:21:27.452Z,2.83
2018-03-15T14:23:55.918Z,6.97
2018-03-15T14:26:24.429Z,3.90
2018-03-15T14:28:52.927Z,3.10
2018-03-15T14:31:21.414Z,6.03
2018-03-15T14:33:49.938Z,5.70
2018-03-15T14:36:18.437Z,11.20
2018-03-15T14:38:46.942Z,3.17
2018-03-15T14:41:15.458Z,8.10
2018-03-15T14:43:44.003Z,5.77
2018-03-15T14:46:12.480Z,8.23
2018-03-15T14:48:41.006Z,6.10
2018-03-15T14:51:09.543Z,7.80
2018-03-15T14:53:38.060Z,4.13
2018-03-15T14:56:06.634Z,5.53
2018-03-15T14:58:35.104Z,2.80
2018-03-15T15:01:03.600Z,7.57
2018-03-15T15:03:32.104Z,6.67
2018-03-15T15:06:00.599Z,8.07
2018-03-15T15:08:29.098Z,8.97
2018-03-15T15:10:59.089Z,4.40
2018-03-15T15:13:29.056Z,11.13
2018-03-15T15:15:59.744Z,8.70
2018-03-15T15:18:34.980Z,7.03
2018-03-15T15:21:07.605Z,11.53
2018-03-15T15:23:43.564Z,17.30
2018-03-15T15:26:15.226Z,3.20
2018-03-15T15:28:46.339Z,3.93
2018-03-15T15:31:16.306Z,3.33
2018-03-15T15:33:45.262Z,2.90
2018-03-15T15:36:14.824Z,21.90
2018-03-15T15:38:43.518Z,5.30
2018-03-15T15:41:12.207Z,5.67
2018-03-15T15:43:40.841Z,2.90
2018-03-15T15:46:09.440Z,8.17
2018-03-15T15:48:38.021Z,20.03
2018-03-15T15:51:06.500Z,6.33
2018-03-15T15:53:34.958Z,8.50
2018-03-15T15:56:03.510Z,5.20
2018-03-15T15:58:32.034Z,7.97
2018-03-15T16:01:00.535Z,7.03
2018-03-15T16:03:29.010Z,7.30
2018-03-15T16:05:57.498Z,4.93
2018-03-15T16:08:25.986Z,4.33
2018-03-15T16:10:54.494Z,9.53
2018-03-15T16:13:22.996Z,5.40
2018-03-15T16:15:51.519Z,5.40
2018-03-15T16:18:19.929Z,7.43
2018-03-15T16:20:48.423Z,9.93
2018-03-15T16:23:16.878Z,14.73
2018-03-15T16:25:45.402Z,16.07
2018-03-15T16:28:13.869Z,6.40
2018-03-15T16:30:42.378Z,12.77
2018-03-15T16:33:10.878Z,15.43
2018-03-15T16:35:39.341Z,20.73
2018-03-15T16:38:07.829Z,23.80
2018-03-15T16:40:36.294Z,11.57
2018-03-15T16:43:04.880Z,14.80
2018-03-15T16:45:33.313Z,7.30
2018-03-15T16:48:01.762Z,10.33
2018-03-15T16:50:30.250Z,8.97
2018-03-15T16:52:58.737Z,12.37
2018-03-15T16:55:27.195Z,14.30
2018-03-15T16:57:55.690Z,27.63
2018-03-15T17:00:24.158Z,27.57
2018-03-15T17:02:52.665Z,13.00
2018-03-15T17:05:21.140Z,11.23
2018-03-15T17:07:49.613Z,10.70
2018-03-15T17:10:18.110Z,8.80
2018-03-15T17:12:46.567Z,8.37
2018-03-15T17:15:15.058Z,8.20
2018-03-15T17:17:43.522Z,14.87
2018-03-15T17:20:12.014Z,11.73
2018-03-15T17:22:40.473Z,13.30
2018-03-15T17:25:09.046Z,14.00
2018-03-15T17:27:37.542Z,18.70
2018-03-15T17:30:06.051Z,12.67
2018-03-15T17:32:34.538Z,16.10
2018-03-15T17:35:03.050Z,9.07
2018-03-15T17:37:31.521Z,11.40
2018-03-15T17:40:00.019Z,7.47
2018-03-15T17:42:28.505Z,11.77
2018-03-15T17:44:56.966Z,21.90
2018-03-15T17:47:25.453Z,12.33
2018-03-15T17:49:53.909Z,21.30
2018-03-15T17:52:22.398Z,12.60
2018-03-15T17:54:50.889Z,14.03
2018-03-15T17:57:19.345Z,11.20
2018-03-15T17:59:47.838Z,8.33
2018-03-15T18:02:16.301Z,9.57
2018-03-15T18:04:44.832Z,11.37
2018-03-15T18:07:13.286Z,10.00
2018-03-15T18:09:41.802Z,13.97
2018-03-15T18:12:10.255Z,8.90
2018-03-15T18:14:38.757Z,13.37
2018-03-15T18:17:07.264Z,34.93
2018-03-15T18:19:35.740Z,38.70
2018-03-15T18:22:04.250Z,38.33
2018-03-15T18:24:32.714Z,22.50
2018-03-15T18:27:01.227Z,31.77
2018-03-15T18:29:29.682Z,23.30
2018-03-15T18:31:58.134Z,18.73
2018-03-15T18:34:26.656Z,14.93
2018-03-15T18:36:55.152Z,10.57
2018-03-15T18:39:23.670Z,13.63
2018-03-15T18:41:52.136Z,11.17
2018-03-15T18:44:20.627Z,9.70
2018-03-15T18:46:49.083Z,16.63
2018-03-15T18:49:17.533Z,21.17
2018-03-15T18:51:46.027Z,19.83
2018-03-15T18:54:14.519Z,21.60
2018-03-15T18:56:43.025Z,22.77
2018-03-15T18:59:11.478Z,18.70
2018-03-15T19:01:39.975Z,13.57
2018-03-15T19:04:08.430Z,13.07
2018-03-15T19:06:36.927Z,14.33
2018-03-15T19:09:05.403Z,12.13
2018-03-15T19:11:33.905Z,18.90
2018-03-15T19:14:02.440Z,14.83
2018-03-15T19:16:30.902Z,10.93
2018-03-15T19:18:59.418Z,8.80
2018-03-15T19:21:27.878Z,13.43
2018-03-15T19:23:56.365Z,10.73
2018-03-15T19:26:24.832Z,10.93
2018-03-15T19:28:53.321Z,17.40
2018-03-15T19:31:21.778Z,20.73
2018-03-15T19:33:50.266Z,17.90
2018-03-15T19:36:18.729Z,18.90
2018-03-15T19:38:47.334Z,22.20
2018-03-15T19:41:15.798Z,30.27
2018-03-15T19:43:44.316Z,28.23
2018-03-15T19:46:12.826Z,34.40
2018-03-15T19:48:41.326Z,27.20
2018-03-15T19:51:09.790Z,23.30
2018-03-15T19:53:38.294Z,21.73
2018-03-15T19:56:06.754Z,24.20
2018-03-15T19:58:35.232Z,20.80
2018-03-15T20:01:03.749Z,22.40
2018-03-15T20:03:32.227Z,15.63
2018-03-15T20:06:00.737Z,18.90
2018-03-15T20:08:29.238Z,21.87
2018-03-15T20:10:57.708Z,28.13
2018-03-15T20:13:26.210Z,25.87
2018-03-15T20:15:54.678Z,21.83
2018-03-15T20:18:23.182Z,27.37
2018-03-15T20:20:51.658Z,30.87
2018-03-15T20:23:25.631Z,29.47
2018-03-15T20:25:54.094Z,35.73
2018-03-15T20:28:27.972Z,28.00
2018-03-15T20:30:56.479Z,31.07
2018-03-15T20:33:30.444Z,36.60
2018-03-15T20:35:58.984Z,36.57
2018-03-15T20:38:27.473Z,31.00
2018-03-15T20:41:01.488Z,31.10
2018-03-15T20:43:30.016Z,29.60
2018-03-15T20:46:04.007Z,31.97
2018-03-15T20:48:38.010Z,30.77
2018-03-15T20:51:06.548Z,28.80
2018-03-15T20:53:35.025Z,29.67
2018-03-15T20:56:03.526Z,31.07
2018-03-15T20:58:31.990Z,30.83
2018-03-15T21:01:00.495Z,31.80
2018-03-15T21:03:28.966Z,30.23
2018-03-15T21:05:57.466Z,31.20
2018-03-15T21:08:25.926Z,37.87
2018-03-15T21:10:54.434Z,40.60
2018-03-15T21:13:22.956Z,39.03
2018-03-15T21:15:51.463Z,40.97
2018-03-15T21:18:19.966Z,40.23
2018-03-15T21:20:48.476Z,28.47
2018-03-15T21:23:16.960Z,21.73
2018-03-15T21:25:45.470Z,23.17
2018-03-15T21:28:13.933Z,17.93
2018-03-15T21:30:42.549Z,17.57
2018-03-15T21:33:11.058Z,16.13
2018-03-15T21:35:39.527Z,15.13
2018-03-15T21:38:08.062Z,15.93
2018-03-15T21:40:36.550Z,19.00
2018-03-15T21:43:05.074Z,17.87
2018-03-15T21:45:33.570Z,17.90
2018-03-15T21:48:02.071Z,26.20
2018-03-15T21:50:30.590Z,35.40
2018-03-15T21:52:59.101Z,21.73
2018-03-15T21:55:27.549Z,23.47
2018-03-15T21:57:56.057Z,24.63
2018-03-15T22:00:24.558Z,24.60
2018-03-15T22:02:53.033Z,24.77
2018-03-15T22:05:21.481Z,21.53
2018-03-15T22:07:49.973Z,19.13
2018-03-15T22:10:18.461Z,19.40
2018-03-15T22:12:46.984Z,22.90
2018-03-15T22:15:15.452Z,19.77
2018-03-15T22:17:43.922Z,22.70
2018-03-15T22:20:12.421Z,22.17
2018-03-15T22:22:40.917Z,20.17
2018-03-15T22:25:09.435Z,23.40
2018-03-15T22:27:37.906Z,21.00
2018-03-15T22:30:06.371Z,21.30
2018-03-15T22:32:34.884Z,21.90
2018-03-15T22:35:03.356Z,22.37
2018-03-15T22:37:31.830Z,23.07
2018-03-15T22:40:00.318Z,21.90
2018-03-15T22:42:28.840Z,22.97
2018-03-15T22:44:57.332Z,23.93
2018-03-15T22:47:25.834Z,20.47
2018-03-15T22:49:54.302Z,19.13
2018-03-15T22:52:22.806Z,19.80
2018-03-15T22:54:51.260Z,20.50
2018-03-15T22:57:19.706Z,26.47
2018-03-15T22:59:48.220Z,23.73
2018-03-15T23:02:16.723Z,22.77
2018-03-15T23:04:45.206Z,20.40
2018-03-15T23:07:13.706Z,18.87
2018-03-15T23:09:42.222Z,20.93
2018-03-15T23:12:10.687Z,18.23
2018-03-15T23:14:39.194Z,25.87
2018-03-15T23:17:07.686Z,43.87
2018-03-15T23:19:36.179Z,37.77
2018-03-15T23:22:04.702Z,31.10
2018-03-15T23:24:33.190Z,29.97
2018-03-15T23:27:01.651Z,28.10
2018-03-15T23:29:30.146Z,23.83
2018-03-15T23:31:58.609Z,23.23
2018-03-15T23:34:27.118Z,20.27
2018-03-15T23:36:55.579Z,20.43
2018-03-15T23:39:24.039Z,23.00
2018-03-15T23:41:52.537Z,24.57
2018-03-15T23:44:20.988Z,23.13
2018-03-15T23:46:49.474Z,23.33
2018-03-15T23:49:17.937Z,22.50
2018-03-15T23:51:46.421Z,23.97
2018-03-15T23:54:14.895Z,21.83
2018-03-15T23:56:43.394Z,21.87
2018-03-15T23:59:11.846Z,15.27
